sensor_id;sensor_type;location;lat;lon;timestamp;pressure;altitude;pressure_sealevel;temperature;humidity
79285;BME280;68734;50.452;11.636;2023-09-07T00:00:30;96188.25;;;12.94;81.32
79285;BME280;68734;50.452;11.636;2023-09-07T00:02:56;96193.63;;;12.89;81.76
79285;BME280;68734;50.452;11.636;2023-09-07T00:05:21;96188.69;;;12.81;82.51
79285;BME280;68734;50.452;11.636;2023-09-07T00:07:46;96186.47;;;12.73;83.35
79285;BME280;68734;50.452;11.636;2023-09-07T00:10:12;96188.00;;;12.64;83.91
79285;BME280;68734;50.452;11.636;2023-09-07T00:12:38;96191.19;;;12.55;84.45
79285;BME280;68734;50.452;11.636;2023-09-07T00:15:05;96196.53;;;12.50;83.89
79285;BME280;68734;50.452;11.636;2023-09-07T00:17:32;96188.63;;;12.44;84.39
79285;BME280;68734;50.452;11.636;2023-09-07T00:19:57;96192.13;;;12.39;84.40
79285;BME280;68734;50.452;11.636;2023-09-07T00:22:23;96191.81;;;12.35;84.41
79285;BME280;68734;50.452;11.636;2023-09-07T00:24:50;96194.22;;;12.32;84.74
79285;BME280;68734;50.452;11.636;2023-09-07T00:27:16;96179.53;;;12.28;84.90
79285;BME280;68734;50.452;11.636;2023-09-07T00:29:42;96193.88;;;12.23;84.73
79285;BME280;68734;50.452;11.636;2023-09-07T00:32:07;96185.44;;;12.20;84.80
79285;BME280;68734;50.452;11.636;2023-09-07T00:34:33;96187.00;;;12.15;84.45
79285;BME280;68734;50.452;11.636;2023-09-07T00:37:00;96187.50;;;12.12;85.18
79285;BME280;68734;50.452;11.636;2023-09-07T00:39:28;96190.16;;;12.07;85.23
79285;BME280;68734;50.452;11.636;2023-09-07T00:41:54;96190.66;;;12.04;85.18
79285;BME280;68734;50.452;11.636;2023-09-07T00:44:20;96194.47;;;12.03;85.74
79285;BME280;68734;50.452;11.636;2023-09-07T00:46:46;96183.56;;;11.98;86.05
79285;BME280;68734;50.452;11.636;2023-09-07T00:49:12;96194.16;;;12.00;86.15
79285;BME280;68734;50.452;11.636;2023-09-07T00:51:37;96188.94;;;11.93;86.04
79285;BME280;68734;50.452;11.636;2023-09-07T00:54:03;96181.53;;;11.88;85.76
79285;BME280;68734;50.452;11.636;2023-09-07T00:56:29;96188.78;;;11.83;85.98
79285;BME280;68734;50.452;11.636;2023-09-07T00:58:55;96185.50;;;11.81;85.98
79285;BME280;68734;50.452;11.636;2023-09-07T01:01:22;96185.19;;;11.77;85.46
79285;BME280;68734;50.452;11.636;2023-09-07T01:03:47;96189.78;;;11.76;86.13
79285;BME280;68734;50.452;11.636;2023-09-07T01:06:18;96181.94;;;11.75;86.87
79285;BME280;68734;50.452;11.636;2023-09-07T01:08:49;96177.81;;;11.72;87.05
79285;BME280;68734;50.452;11.636;2023-09-07T01:11:17;96181.03;;;11.69;87.42
79285;BME280;68734;50.452;11.636;2023-09-07T01:13:43;96184.25;;;11.66;87.70
79285;BME280;68734;50.452;11.636;2023-09-07T01:16:09;96180.69;;;11.61;88.30
79285;BME280;68734;50.452;11.636;2023-09-07T01:18:36;96181.28;;;11.68;88.43
79285;BME280;68734;50.452;11.636;2023-09-07T01:21:05;96184.88;;;11.73;86.41
79285;BME280;68734;50.452;11.636;2023-09-07T01:23:37;96192.44;;;11.71;86.71
79285;BME280;68734;50.452;11.636;2023-09-07T01:26:03;96180.47;;;11.67;86.69
79285;BME280;68734;50.452;11.636;2023-09-07T01:28:29;96184.75;;;11.63;86.38
79285;BME280;68734;50.452;11.636;2023-09-07T01:30:55;96184.13;;;11.56;86.94
79285;BME280;68734;50.452;11.636;2023-09-07T01:33:20;96178.34;;;11.47;86.92
79285;BME280;68734;50.452;11.636;2023-09-07T01:35:46;96184.75;;;11.41;86.78
79285;BME280;68734;50.452;11.636;2023-09-07T01:38:11;96186.66;;;11.41;88.03
79285;BME280;68734;50.452;11.636;2023-09-07T01:40:37;96183.38;;;11.38;87.64
79285;BME280;68734;50.452;11.636;2023-09-07T01:43:02;96192.53;;;11.37;87.51
79285;BME280;68734;50.452;11.636;2023-09-07T01:45:28;96193.53;;;11.31;87.26
79285;BME280;68734;50.452;11.636;2023-09-07T01:47:53;96190.75;;;11.26;87.66
79285;BME280;68734;50.452;11.636;2023-09-07T01:50:19;96193.16;;;11.23;88.01
79285;BME280;68734;50.452;11.636;2023-09-07T01:52:47;96193.88;;;11.18;88.01
79285;BME280;68734;50.452;11.636;2023-09-07T01:55:15;96196.53;;;11.13;88.52
79285;BME280;68734;50.452;11.636;2023-09-07T01:57:41;96203.22;;;11.10;88.60
79285;BME280;68734;50.452;11.636;2023-09-07T02:00:06;96197.53;;;11.07;89.44
79285;BME280;68734;50.452;11.636;2023-09-07T02:02:32;96195.88;;;11.06;88.34
79285;BME280;68734;50.452;11.636;2023-09-07T02:04:58;96189.31;;;11.02;88.29
79285;BME280;68734;50.452;11.636;2023-09-07T02:07:23;96186.88;;;11.00;89.02
79285;BME280;68734;50.452;11.636;2023-09-07T02:09:49;96191.97;;;10.96;88.86
79285;BME280;68734;50.452;11.636;2023-09-07T02:12:14;96190.78;;;10.92;88.84
79285;BME280;68734;50.452;11.636;2023-09-07T02:14:39;96192.94;;;10.90;88.87
79285;BME280;68734;50.452;11.636;2023-09-07T02:17:05;96193.91;;;10.84;89.18
79285;BME280;68734;50.452;11.636;2023-09-07T02:19:30;96191.16;;;10.79;88.43
79285;BME280;68734;50.452;11.636;2023-09-07T02:21:56;96191.16;;;10.79;88.52
79285;BME280;68734;50.452;11.636;2023-09-07T02:24:21;96194.31;;;10.76;88.67
79285;BME280;68734;50.452;11.636;2023-09-07T02:26:47;96198.34;;;10.73;88.74
79285;BME280;68734;50.452;11.636;2023-09-07T02:29:12;96191.63;;;10.76;89.87
79285;BME280;68734;50.452;11.636;2023-09-07T02:31:39;96201.97;;;10.79;90.70
79285;BME280;68734;50.452;11.636;2023-09-07T02:34:07;96202.78;;;10.80;89.85
79285;BME280;68734;50.452;11.636;2023-09-07T02:36:36;96202.44;;;10.76;89.56
79285;BME280;68734;50.452;11.636;2023-09-07T02:39:01;96195.66;;;10.73;88.91
79285;BME280;68734;50.452;11.636;2023-09-07T02:41:27;96195.88;;;10.72;89.51
79285;BME280;68734;50.452;11.636;2023-09-07T02:43:52;96205.06;;;10.71;89.86
79285;BME280;68734;50.452;11.636;2023-09-07T02:46:18;96203.94;;;10.67;90.06
79285;BME280;68734;50.452;11.636;2023-09-07T02:48:43;96207.09;;;10.64;89.36
79285;BME280;68734;50.452;11.636;2023-09-07T02:51:08;96201.63;;;10.58;89.61
79285;BME280;68734;50.452;11.636;2023-09-07T02:53:34;96202.09;;;10.55;89.61
79285;BME280;68734;50.452;11.636;2023-09-07T02:55:59;96195.31;;;10.53;89.56
79285;BME280;68734;50.452;11.636;2023-09-07T02:58:27;96199.06;;;10.52;90.34
79285;BME280;68734;50.452;11.636;2023-09-07T03:00:52;96202.59;;;10.52;90.55
79285;BME280;68734;50.452;11.636;2023-09-07T03:03:18;96196.69;;;10.55;90.37
79285;BME280;68734;50.452;11.636;2023-09-07T03:05:43;96203.66;;;10.51;89.90
79285;BME280;68734;50.452;11.636;2023-09-07T03:08:10;96205.56;;;10.51;89.86
79285;BME280;68734;50.452;11.636;2023-09-07T03:10:36;96199.81;;;10.47;89.98
79285;BME280;68734;50.452;11.636;2023-09-07T03:13:07;96204.63;;;10.45;90.04
79285;BME280;68734;50.452;11.636;2023-09-07T03:15:33;96200.28;;;10.44;89.90
79285;BME280;68734;50.452;11.636;2023-09-07T03:17:59;96194.81;;;10.39;89.83
79285;BME280;68734;50.452;11.636;2023-09-07T03:20:25;96200.09;;;10.34;89.52
79285;BME280;68734;50.452;11.636;2023-09-07T03:22:53;96197.91;;;10.31;90.21
79285;BME280;68734;50.452;11.636;2023-09-07T03:25:18;96193.19;;;10.26;90.46
79285;BME280;68734;50.452;11.636;2023-09-07T03:27:44;96196.16;;;10.25;90.36
79285;BME280;68734;50.452;11.636;2023-09-07T03:30:10;96196.63;;;10.22;90.32
79285;BME280;68734;50.452;11.636;2023-09-07T03:32:35;96198.16;;;10.17;90.67
79285;BME280;68734;50.452;11.636;2023-09-07T03:35:03;96200.78;;;10.12;91.07
79285;BME280;68734;50.452;11.636;2023-09-07T03:37:35;96193.97;;;10.10;90.76
79285;BME280;68734;50.452;11.636;2023-09-07T03:40:01;96193.97;;;10.10;90.96
79285;BME280;68734;50.452;11.636;2023-09-07T03:42:26;96191.53;;;10.08;90.99
79285;BME280;68734;50.452;11.636;2023-09-07T03:44:52;96203.97;;;10.09;90.71
79285;BME280;68734;50.452;11.636;2023-09-07T03:47:19;96197.16;;;10.07;90.96
79285;BME280;68734;50.452;11.636;2023-09-07T03:49:45;96202.81;;;10.05;91.25
79285;BME280;68734;50.452;11.636;2023-09-07T03:52:13;96204.94;;;10.03;91.29
79285;BME280;68734;50.452;11.636;2023-09-07T03:54:38;96209.16;;;9.99;91.09
79285;BME280;68734;50.452;11.636;2023-09-07T03:57:04;96206.94;;;9.96;91.47
79285;BME280;68734;50.452;11.636;2023-09-07T03:59:29;96208.59;;;9.97;91.31
79285;BME280;68734;50.452;11.636;2023-09-07T04:01:55;96206.13;;;9.95;91.34
79285;BME280;68734;50.452;11.636;2023-09-07T04:04:20;96209.63;;;9.96;91.31
79285;BME280;68734;50.452;11.636;2023-09-07T04:06:47;96206.34;;;9.94;91.47
79285;BME280;68734;50.452;11.636;2023-09-07T04:09:13;96202.03;;;9.93;91.25
79285;BME280;68734;50.452;11.636;2023-09-07T04:11:39;96204.72;;;9.93;91.14
79285;BME280;68734;50.452;11.636;2023-09-07T04:14:04;96206.34;;;9.94;90.80
79285;BME280;68734;50.452;11.636;2023-09-07T04:16:30;96207.19;;;9.94;91.51
79285;BME280;68734;50.452;11.636;2023-09-07T04:18:58;96208.59;;;9.97;91.93
79285;BME280;68734;50.452;11.636;2023-09-07T04:21:23;96209.63;;;9.96;91.44
79285;BME280;68734;50.452;11.636;2023-09-07T04:23:49;96210.94;;;9.93;91.19
79285;BME280;68734;50.452;11.636;2023-09-07T04:26:14;96204.38;;;9.89;90.67
79285;BME280;68734;50.452;11.636;2023-09-07T04:28:42;96211.66;;;9.89;90.71
79285;BME280;68734;50.452;11.636;2023-09-07T04:31:08;96210.28;;;9.86;90.95
79285;BME280;68734;50.452;11.636;2023-09-07T04:33:34;96204.03;;;9.86;90.71
79285;BME280;68734;50.452;11.636;2023-09-07T04:36:12;96214.84;;;9.86;91.13
79285;BME280;68734;50.452;11.636;2023-09-07T04:38:38;96214.84;;;9.86;90.81
79285;BME280;68734;50.452;11.636;2023-09-07T04:41:08;96212.97;;;9.86;90.84
79285;BME280;68734;50.452;11.636;2023-09-07T04:43:34;96223.38;;;9.94;90.96
79285;BME280;68734;50.452;11.636;2023-09-07T04:45:59;96225.59;;;10.26;89.84
79285;BME280;68734;50.452;11.636;2023-09-07T04:48:25;96212.59;;;10.69;88.02
79285;BME280;68734;50.452;11.636;2023-09-07T04:51:03;96217.00;;;11.09;85.59
79285;BME280;68734;50.452;11.636;2023-09-07T04:53:31;96212.13;;;11.67;83.98
79285;BME280;68734;50.452;11.636;2023-09-07T04:55:57;96223.25;;;12.14;80.99
79285;BME280;68734;50.452;11.636;2023-09-07T04:58:23;96221.09;;;12.66;78.78
79285;BME280;68734;50.452;11.636;2023-09-07T05:00:51;96216.59;;;13.14;75.79
79285;BME280;68734;50.452;11.636;2023-09-07T05:03:17;96221.88;;;13.73;74.03
79285;BME280;68734;50.452;11.636;2023-09-07T05:05:50;96212.78;;;14.21;71.52
79285;BME280;68734;50.452;11.636;2023-09-07T05:08:15;96212.38;;;14.85;69.70
79285;BME280;68734;50.452;11.636;2023-09-07T05:10:41;96214.53;;;15.40;67.38
79285;BME280;68734;50.452;11.636;2023-09-07T05:13:07;96213.88;;;15.94;65.53
79285;BME280;68734;50.452;11.636;2023-09-07T05:15:32;96204.94;;;16.33;63.97
79285;BME280;68734;50.452;11.636;2023-09-07T05:17:58;96213.13;;;16.83;62.31
79285;BME280;68734;50.452;11.636;2023-09-07T05:20:23;96216.28;;;17.29;60.68
79285;BME280;68734;50.452;11.636;2023-09-07T05:22:48;96209.38;;;17.66;59.32
79285;BME280;68734;50.452;11.636;2023-09-07T05:25:14;96211.00;;;18.16;57.83
79285;BME280;68734;50.452;11.636;2023-09-07T05:27:40;96211.88;;;18.30;56.68
79285;BME280;68734;50.452;11.636;2023-09-07T05:30:06;96209.91;;;18.73;56.06
79285;BME280;68734;50.452;11.636;2023-09-07T05:32:32;96214.13;;;19.04;54.97
79285;BME280;68734;50.452;11.636;2023-09-07T05:34:57;96207.53;;;19.38;54.21
79285;BME280;68734;50.452;11.636;2023-09-07T05:37:23;96206.84;;;19.79;53.14
79285;BME280;68734;50.452;11.636;2023-09-07T05:39:48;96210.72;;;18.74;55.47
79285;BME280;68734;50.452;11.636;2023-09-07T05:42:16;96210.97;;;17.67;59.01
79285;BME280;68734;50.452;11.636;2023-09-07T05:44:41;96217.13;;;16.51;62.34
79285;BME280;68734;50.452;11.636;2023-09-07T05:47:07;96215.03;;;15.78;65.58
79285;BME280;68734;50.452;11.636;2023-09-07T05:49:32;96218.91;;;15.20;68.03
79285;BME280;68734;50.452;11.636;2023-09-07T05:51:58;96208.84;;;14.74;71.68
79285;BME280;68734;50.452;11.636;2023-09-07T05:54:23;96213.38;;;14.43;72.79
79285;BME280;68734;50.452;11.636;2023-09-07T05:56:49;96217.19;;;14.32;74.18
79285;BME280;68734;50.452;11.636;2023-09-07T05:59:14;96215.25;;;14.22;76.09
79285;BME280;68734;50.452;11.636;2023-09-07T06:01:40;96213.88;;;14.09;76.86
79285;BME280;68734;50.452;11.636;2023-09-07T06:04:06;96223.84;;;13.99;76.91
79285;BME280;68734;50.452;11.636;2023-09-07T06:06:34;96211.91;;;13.94;77.35
79285;BME280;68734;50.452;11.636;2023-09-07T06:08:59;96216.31;;;14.21;76.96
79285;BME280;68734;50.452;11.636;2023-09-07T06:11:25;96218.38;;;14.98;73.95
79285;BME280;68734;50.452;11.636;2023-09-07T06:13:50;96218.63;;;15.01;73.58
79285;BME280;68734;50.452;11.636;2023-09-07T06:16:16;96217.31;;;14.93;73.64
79285;BME280;68734;50.452;11.636;2023-09-07T06:18:42;96217.84;;;14.90;74.12
79285;BME280;68734;50.452;11.636;2023-09-07T06:21:07;96225.72;;;14.87;74.45
79285;BME280;68734;50.452;11.636;2023-09-07T06:23:33;96226.25;;;14.89;74.58
79285;BME280;68734;50.452;11.636;2023-09-07T06:25:59;96229.22;;;14.87;75.99
79285;BME280;68734;50.452;11.636;2023-09-07T06:28:25;96230.88;;;15.14;74.49
79285;BME280;68734;50.452;11.636;2023-09-07T06:30:50;96223.19;;;15.78;71.92
79285;BME280;68734;50.452;11.636;2023-09-07T06:33:15;96232.84;;;16.14;69.99
79285;BME280;68734;50.452;11.636;2023-09-07T06:35:42;96229.28;;;16.19;70.17
79285;BME280;68734;50.452;11.636;2023-09-07T06:38:07;96227.94;;;16.17;71.58
79285;BME280;68734;50.452;11.636;2023-09-07T06:40:33;96224.06;;;16.28;70.66
79285;BME280;68734;50.452;11.636;2023-09-07T06:42:58;96230.66;;;16.22;70.96
79285;BME280;68734;50.452;11.636;2023-09-07T06:45:33;96224.63;;;16.25;70.45
79285;BME280;68734;50.452;11.636;2023-09-07T06:48:02;96230.66;;;16.22;70.40
79285;BME280;68734;50.452;11.636;2023-09-07T06:50:27;96223.50;;;16.31;69.63
79285;BME280;68734;50.452;11.636;2023-09-07T06:52:53;96225.50;;;16.60;69.51
79285;BME280;68734;50.452;11.636;2023-09-07T06:55:22;96226.09;;;17.30;67.19
79285;BME280;68734;50.452;11.636;2023-09-07T06:57:47;96228.16;;;17.68;65.53
79285;BME280;68734;50.452;11.636;2023-09-07T07:00:15;96225.75;;;17.66;65.28
79285;BME280;68734;50.452;11.636;2023-09-07T07:02:40;96226.56;;;17.67;65.14
79285;BME280;68734;50.452;11.636;2023-09-07T07:05:06;96236.19;;;17.59;65.23
79285;BME280;68734;50.452;11.636;2023-09-07T07:07:32;96228.88;;;17.54;65.41
79285;BME280;68734;50.452;11.636;2023-09-07T07:09:57;96222.13;;;17.47;65.31
79285;BME280;68734;50.452;11.636;2023-09-07T07:12:23;96228.97;;;17.44;66.46
79285;BME280;68734;50.452;11.636;2023-09-07T07:14:48;96231.31;;;17.56;66.21
79285;BME280;68734;50.452;11.636;2023-09-07T07:17:14;96238.63;;;17.61;66.78
79285;BME280;68734;50.452;11.636;2023-09-07T07:19:39;96240.25;;;17.62;66.00
79285;BME280;68734;50.452;11.636;2023-09-07T07:22:05;96241.53;;;17.69;64.59
79285;BME280;68734;50.452;11.636;2023-09-07T07:24:30;96241.44;;;17.80;65.49
79285;BME280;68734;50.452;11.636;2023-09-07T07:26:56;96237.06;;;17.84;64.61
79285;BME280;68734;50.452;11.636;2023-09-07T07:29:21;96244.59;;;17.92;64.71
79285;BME280;68734;50.452;11.636;2023-09-07T07:31:46;96245.56;;;18.06;64.08
79285;BME280;68734;50.452;11.636;2023-09-07T07:34:12;96247.66;;;18.14;64.72
79285;BME280;68734;50.452;11.636;2023-09-07T07:36:38;96243.09;;;18.29;64.91
79285;BME280;68734;50.452;11.636;2023-09-07T07:39:04;96246.25;;;18.36;63.01
79285;BME280;68734;50.452;11.636;2023-09-07T07:41:32;96244.50;;;18.45;64.39
79285;BME280;68734;50.452;11.636;2023-09-07T07:43:57;96252.13;;;18.48;63.60
79285;BME280;68734;50.452;11.636;2023-09-07T07:46:22;96251.16;;;18.58;64.51
79285;BME280;68734;50.452;11.636;2023-09-07T07:48:48;96245.34;;;18.65;63.36
79285;BME280;68734;50.452;11.636;2023-09-07T07:51:13;96251.19;;;18.77;63.37
79285;BME280;68734;50.452;11.636;2023-09-07T07:53:42;96253.00;;;18.87;63.43
79285;BME280;68734;50.452;11.636;2023-09-07T07:56:18;96248.78;;;18.95;61.03
79285;BME280;68734;50.452;11.636;2023-09-07T07:58:44;96248.78;;;18.95;62.57
79285;BME280;68734;50.452;11.636;2023-09-07T08:01:19;96249.41;;;19.05;61.68
79285;BME280;68734;50.452;11.636;2023-09-07T08:03:48;96248.97;;;19.17;61.63
79285;BME280;68734;50.452;11.636;2023-09-07T08:06:14;96245.03;;;19.23;61.29
79285;BME280;68734;50.452;11.636;2023-09-07T08:08:40;96247.06;;;19.31;61.62
79285;BME280;68734;50.452;11.636;2023-09-07T08:11:07;96240.41;;;19.38;60.59
79285;BME280;68734;50.452;11.636;2023-09-07T08:13:34;96243.47;;;19.50;59.99
79285;BME280;68734;50.452;11.636;2023-09-07T08:16:04;96246.88;;;19.61;59.91
79285;BME280;68734;50.452;11.636;2023-09-07T08:18:31;96236.72;;;19.61;59.94
79285;BME280;68734;50.452;11.636;2023-09-07T08:20:57;96241.28;;;19.66;60.07
79285;BME280;68734;50.452;11.636;2023-09-07T08:23:25;96242.53;;;19.73;62.21
79285;BME280;68734;50.452;11.636;2023-09-07T08:25:52;96248.44;;;19.81;59.40
79285;BME280;68734;50.452;11.636;2023-09-07T08:28:18;96230.16;;;19.90;58.21
79285;BME280;68734;50.452;11.636;2023-09-07T08:30:44;96241.84;;;19.96;58.46
79285;BME280;68734;50.452;11.636;2023-09-07T08:33:10;96239.03;;;20.01;59.23
79285;BME280;68734;50.452;11.636;2023-09-07T08:35:35;96239.13;;;20.09;58.80
79285;BME280;68734;50.452;11.636;2023-09-07T08:38:03;96239.53;;;20.17;59.45
79285;BME280;68734;50.452;11.636;2023-09-07T08:40:35;96229.75;;;20.24;58.92
79285;BME280;68734;50.452;11.636;2023-09-07T08:43:03;96224.03;;;20.35;57.49
79285;BME280;68734;50.452;11.636;2023-09-07T08:45:30;96231.59;;;20.43;57.08
79285;BME280;68734;50.452;11.636;2023-09-07T08:47:57;96232.97;;;20.54;57.07
79285;BME280;68734;50.452;11.636;2023-09-07T08:50:24;96230.66;;;20.61;58.89
79285;BME280;68734;50.452;11.636;2023-09-07T08:52:53;96228.47;;;20.72;53.45
79285;BME280;68734;50.452;11.636;2023-09-07T08:55:21;96232.50;;;20.88;53.54
79285;BME280;68734;50.452;11.636;2023-09-07T08:57:46;96228.34;;;20.91;54.17
79285;BME280;68734;50.452;11.636;2023-09-07T09:00:12;96226.75;;;20.99;53.82
79285;BME280;68734;50.452;11.636;2023-09-07T09:02:42;96229.00;;;20.97;52.22
79285;BME280;68734;50.452;11.636;2023-09-07T09:05:12;96220.47;;;20.98;54.03
79285;BME280;68734;50.452;11.636;2023-09-07T09:07:39;96216.16;;;21.06;52.13
79285;BME280;68734;50.452;11.636;2023-09-07T09:10:08;96228.16;;;21.10;52.79
79285;BME280;68734;50.452;11.636;2023-09-07T09:12:34;96220.41;;;21.12;51.98
79285;BME280;68734;50.452;11.636;2023-09-07T09:15:00;96227.09;;;21.20;52.60
79285;BME280;68734;50.452;11.636;2023-09-07T09:17:29;96221.53;;;21.34;51.64
79285;BME280;68734;50.452;11.636;2023-09-07T09:19:54;96222.22;;;21.39;52.23
79285;BME280;68734;50.452;11.636;2023-09-07T09:22:20;96232.03;;;21.54;51.97
79285;BME280;68734;50.452;11.636;2023-09-07T09:24:49;96213.47;;;21.60;52.08
79285;BME280;68734;50.452;11.636;2023-09-07T09:27:14;96216.53;;;21.58;50.74
79285;BME280;68734;50.452;11.636;2023-09-07T09:29:40;96215.28;;;21.64;52.82
79285;BME280;68734;50.452;11.636;2023-09-07T09:32:07;96214.00;;;21.70;50.97
79285;BME280;68734;50.452;11.636;2023-09-07T09:34:36;96216.34;;;21.86;49.79
79285;BME280;68734;50.452;11.636;2023-09-07T09:37:03;96218.13;;;21.90;50.15
79285;BME280;68734;50.452;11.636;2023-09-07T09:39:28;96215.88;;;21.92;50.83
79285;BME280;68734;50.452;11.636;2023-09-07T09:41:56;96198.56;;;21.92;49.44
79285;BME280;68734;50.452;11.636;2023-09-07T09:44:23;96214.78;;;22.02;51.17
79285;BME280;68734;50.452;11.636;2023-09-07T09:46:52;96213.69;;;22.03;50.04
79285;BME280;68734;50.452;11.636;2023-09-07T09:49:20;96210.63;;;22.14;51.83
79285;BME280;68734;50.452;11.636;2023-09-07T09:51:50;96200.97;;;22.25;51.25
79285;BME280;68734;50.452;11.636;2023-09-07T09:54:17;96208.78;;;22.40;49.19
79285;BME280;68734;50.452;11.636;2023-09-07T09:56:43;96203.13;;;22.45;47.91
79285;BME280;68734;50.452;11.636;2023-09-07T09:59:10;96196.97;;;22.48;46.45
79285;BME280;68734;50.452;11.636;2023-09-07T10:01:47;96201.69;;;22.57;46.25
79285;BME280;68734;50.452;11.636;2023-09-07T10:04:17;96206.56;;;22.60;46.48
79285;BME280;68734;50.452;11.636;2023-09-07T10:06:58;96199.28;;;22.64;44.57
79285;BME280;68734;50.452;11.636;2023-09-07T10:09:29;96197.63;;;22.63;43.83
79285;BME280;68734;50.452;11.636;2023-09-07T10:11:57;96203.00;;;22.68;43.58
79285;BME280;68734;50.452;11.636;2023-09-07T10:14:25;96197.31;;;22.73;43.63
79285;BME280;68734;50.452;11.636;2023-09-07T10:16:52;96193.44;;;22.74;44.56
79285;BME280;68734;50.452;11.636;2023-09-07T10:19:22;96191.66;;;22.78;43.46
79285;BME280;68734;50.452;11.636;2023-09-07T10:21:48;96194.28;;;22.83;43.31
79285;BME280;68734;50.452;11.636;2023-09-07T10:24:31;96197.50;;;22.85;43.52
79285;BME280;68734;50.452;11.636;2023-09-07T10:27:03;96193.44;;;22.92;44.54
79285;BME280;68734;50.452;11.636;2023-09-07T10:29:43;96186.78;;;22.93;44.00
79285;BME280;68734;50.452;11.636;2023-09-07T10:32:09;96197.50;;;23.03;45.18
79285;BME280;68734;50.452;11.636;2023-09-07T10:34:40;96197.00;;;23.01;43.76
79285;BME280;68734;50.452;11.636;2023-09-07T10:37:12;96185.50;;;22.99;43.15
79285;BME280;68734;50.452;11.636;2023-09-07T10:39:39;96186.16;;;23.13;44.07
79285;BME280;68734;50.452;11.636;2023-09-07T10:42:05;96182.75;;;23.25;42.82
79285;BME280;68734;50.452;11.636;2023-09-07T10:44:31;96180.00;;;23.16;42.03
79285;BME280;68734;50.452;11.636;2023-09-07T10:46:57;96173.19;;;23.22;43.57
79285;BME280;68734;50.452;11.636;2023-09-07T10:49:23;96184.84;;;23.19;43.17
79285;BME280;68734;50.452;11.636;2023-09-07T10:51:48;96178.53;;;23.19;43.26
79285;BME280;68734;50.452;11.636;2023-09-07T10:54:18;96176.09;;;23.17;43.15
79285;BME280;68734;50.452;11.636;2023-09-07T10:56:46;96174.16;;;23.26;43.71
79285;BME280;68734;50.452;11.636;2023-09-07T10:59:16;96178.84;;;23.35;42.61
79285;BME280;68734;50.452;11.636;2023-09-07T11:01:43;96172.69;;;23.38;42.23
79285;BME280;68734;50.452;11.636;2023-09-07T11:04:09;96176.56;;;23.45;42.62
79285;BME280;68734;50.452;11.636;2023-09-07T11:06:38;96177.84;;;23.48;42.47
79285;BME280;68734;50.452;11.636;2023-09-07T11:09:05;96179.94;;;23.51;42.57
79285;BME280;68734;50.452;11.636;2023-09-07T11:11:34;96177.16;;;23.60;42.34
79285;BME280;68734;50.452;11.636;2023-09-07T11:14:03;96182.16;;;23.66;43.04
79285;BME280;68734;50.452;11.636;2023-09-07T11:16:35;96177.44;;;23.67;41.96
79285;BME280;68734;50.452;11.636;2023-09-07T11:19:04;96166.56;;;23.70;41.74
79285;BME280;68734;50.452;11.636;2023-09-07T11:21:30;96165.94;;;23.74;40.88
79285;BME280;68734;50.452;11.636;2023-09-07T11:23:57;96170.59;;;23.73;41.42
79285;BME280;68734;50.452;11.636;2023-09-07T11:26:23;96169.16;;;23.76;40.60
79285;BME280;68734;50.452;11.636;2023-09-07T11:28:48;96162.34;;;23.82;42.01
79285;BME280;68734;50.452;11.636;2023-09-07T11:31:18;96169.44;;;23.92;42.68
79285;BME280;68734;50.452;11.636;2023-09-07T11:33:43;96168.13;;;23.89;41.21
79285;BME280;68734;50.452;11.636;2023-09-07T11:36:11;96154.81;;;23.91;42.09
79285;BME280;68734;50.452;11.636;2023-09-07T11:38:37;96156.09;;;24.02;40.67
79285;BME280;68734;50.452;11.636;2023-09-07T11:41:05;96145.84;;;24.03;38.49
79285;BME280;68734;50.452;11.636;2023-09-07T11:43:31;96150.38;;;24.07;38.48
79285;BME280;68734;50.452;11.636;2023-09-07T11:45:56;96149.22;;;24.08;41.07
79285;BME280;68734;50.452;11.636;2023-09-07T11:48:22;96151.34;;;24.12;39.28
79285;BME280;68734;50.452;11.636;2023-09-07T11:50:47;96144.00;;;24.16;39.69
79285;BME280;68734;50.452;11.636;2023-09-07T11:53:13;96158.28;;;24.18;40.16
79285;BME280;68734;50.452;11.636;2023-09-07T11:55:39;96156.66;;;24.17;39.71
79285;BME280;68734;50.452;11.636;2023-09-07T11:58:06;96148.84;;;24.19;40.71
79285;BME280;68734;50.452;11.636;2023-09-07T12:00:31;96152.88;;;24.21;39.35
79285;BME280;68734;50.452;11.636;2023-09-07T12:02:57;96141.97;;;24.25;39.96
79285;BME280;68734;50.452;11.636;2023-09-07T12:05:23;96139.13;;;24.42;40.65
79285;BME280;68734;50.452;11.636;2023-09-07T12:07:49;96138.66;;;24.40;39.78
79285;BME280;68734;50.452;11.636;2023-09-07T12:10:17;96141.59;;;24.35;40.14
79285;BME280;68734;50.452;11.636;2023-09-07T12:12:43;96134.06;;;24.44;39.73
79285;BME280;68734;50.452;11.636;2023-09-07T12:15:10;96150.72;;;24.57;39.57
79285;BME280;68734;50.452;11.636;2023-09-07T12:17:38;96146.69;;;24.75;39.13
79285;BME280;68734;50.452;11.636;2023-09-07T12:20:04;96140.69;;;24.73;39.12
79285;BME280;68734;50.452;11.636;2023-09-07T12:22:36;96129.41;;;24.66;39.63
79285;BME280;68734;50.452;11.636;2023-09-07T12:25:04;96142.97;;;24.71;39.88
79285;BME280;68734;50.452;11.636;2023-09-07T12:27:34;96145.75;;;24.71;39.18
79285;BME280;68734;50.452;11.636;2023-09-07T12:30:01;96136.50;;;24.67;38.67
79285;BME280;68734;50.452;11.636;2023-09-07T12:32:27;96139.09;;;24.72;39.44
79285;BME280;68734;50.452;11.636;2023-09-07T12:34:53;96141.38;;;24.70;38.57
79285;BME280;68734;50.452;11.636;2023-09-07T12:37:19;96126.88;;;24.73;37.45
79285;BME280;68734;50.452;11.636;2023-09-07T12:39:44;96135.91;;;24.82;37.39
79285;BME280;68734;50.452;11.636;2023-09-07T12:42:09;96137.31;;;24.88;38.11
79285;BME280;68734;50.452;11.636;2023-09-07T12:44:35;96135.97;;;24.95;38.99
79285;BME280;68734;50.452;11.636;2023-09-07T12:47:00;96131.22;;;24.95;39.61